マナグア の空港の天気 - METARとTAF

マナグア国際空港 ( MNMG / MGA ) - ニカラグア マナグア県マナグア
飛行場実況気象(Metar)
観測時間12/15 23:00 CST (12/16 05:00 UTC)
風向・風速南南東 3m/s
視程10km以上
天気現象
少しの雲 雲底高度 850m
全天の4割程度の雲 雲底高度 2130m
気温25℃
湿度83%
気圧1012hPa
METARMNMG 160500Z 16006KT 9999 FEW028 SCT070 25/22 Q1012 A2988 NOSIG
過去の天気等 Google飛行場航空写真 Wunderground天気予報

過去48時間のMETAR

飛行場予報(TAF)
発表時間: 12/15 20:00 CST (12/16 02:00 UTC)
予報対象時間: 16日0時 CST ~ 17日0時 CST
風向・風速東北東 5m/s
視程10km以上
少しの雲 雲底高度 850m
全天の4割程度の雲 雲底高度 2130m
16日7時 CST ~ 16日12時 CST に徐々に
風向・風速東 8m/s
少しの雲 雲底高度 670m
全天の4割程度の雲 雲底高度 9140m
16日15時 CST から
風向・風速東北東 7m/s
MNMG 160200Z 1606/1706 07010KT 9999 FEW028 SCT070
BECMG 1613/1618 10016KT FEW022 SCT300
FM162100 06014KT